Maersk Bulan — 9V7693 — position and weather

sailwx.info

Track history (hours):
 
Tides and Currents Weather Stations Pressure Air Temp Water Temp Dewpoint Dewpoint Depression Visibility Wind Speed Wind Dir Waves Ship Positions

Maersk Bulan

Last reported at 2014-Nov-09 03:18 UTC. Time now 2014-Nov-26 12:44 UTC.
Position N 34°28' W 024°40'.
Warning: this ship's position is 17 days out of date.

Length 223 m; draft 11.4 m.

Type: Ship (hazmat cat A). MMSI: 563455000.

Date/timePositionNaut miles runAvg speedWind from/ knotsBaromVisibWave heightAir tempDewpointWater temp
2014-Nov-09 03:18N 34°28' W 024°40'912.1
2014-Nov-09 02:33N 34°30' W 024°30'1411.8
2014-Nov-09 01:24N 34°32' W 024°13'1612.3
2014-Nov-09 00:08N 34°35' W 023°55'912.7
2014-Nov-08 23:24N 34°37' W 023°43'  
2014-Nov-05 19:05N 35°59' W 005°31'5 8.1
2014-Nov-05 18:30N 36°01' W 005°26'8 8.5
2014-Nov-05 17:33N 36°09' W 005°25'1 0.9
2014-Nov-05 16:26N 36°08' W 005°26'0 0.0
2014-Nov-05 15:29N 36°08' W 005°26'0 0.0
2014-Nov-05 14:29N 36°08' W 005°26'0 0.0
2014-Nov-05 13:29N 36°08' W 005°26'0 0.0
2014-Nov-05 12:29N 36°08' W 005°26'0 0.0
2014-Nov-05 11:29N 36°08' W 005°26'0 0.0
2014-Nov-05 10:26N 36°08' W 005°26'0 0.0
2014-Nov-05 09:29N 36°08' W 005°26'0 0.0
2014-Nov-05 08:29N 36°08' W 005°26'0 0.0
2014-Nov-05 07:26N 36°08' W 005°26'0 0.0
2014-Nov-05 06:23N 36°08' W 005°26'0 0.0
2014-Nov-05 05:29N 36°08' W 005°26'0 0.0
2014-Nov-05 04:32N 36°08' W 005°26'0 0.0
2014-Nov-05 03:29N 36°08' W 005°26'0 0.0
2014-Nov-05 02:29N 36°08' W 005°26'0 0.0
2014-Nov-05 01:17N 36°08' W 005°26'0 0.0
2014-Nov-05 00:29N 36°08' W 005°26'0 0.0
2014-Nov-04 23:32N 36°08' W 005°26'0 0.0
2014-Nov-04 22:32N 36°08' W 005°26'0 0.0
2014-Nov-04 21:26N 36°08' W 005°26'0 0.0
2014-Nov-04 20:29N 36°08' W 005°26'0 0.0
2014-Nov-04 19:26N 36°08' W 005°26'0 0.0
2014-Nov-04 18:29N 36°08' W 005°26'0 0.0
2014-Nov-04 17:32N 36°08' W 005°26'0 0.0
2014-Nov-04 16:32N 36°08' W 005°26'0 0.0
2014-Nov-04 15:23N 36°08' W 005°26'0 0.0
2014-Nov-04 14:05N 36°08' W 005°26'0 0.0
2014-Nov-04 13:29N 36°08' W 005°26'0 0.0
2014-Nov-04 09:29N 36°08' W 005°26'0 0.0
2014-Nov-04 07:20N 36°08' W 005°26'0 0.0
2014-Nov-04 06:17N 36°08' W 005°26'0 0.0
2014-Nov-04 05:29N 36°08' W 005°26'0 0.0
2014-Nov-04 04:20N 36°08' W 005°26'0 0.0
2014-Nov-04 03:23N 36°08' W 005°26'0 0.0
2014-Nov-04 02:16N 36°08' W 005°26'2 1.1
2014-Nov-04 00:26N 36°08' W 005°24'4 3.6
2014-Nov-03 23:17N 36°05' W 005°20'26711.1
2014-Nov-02 23:18N 36°45' E 000°08'  
Track history (hours):
 
Tides and Currents Weather Stations Pressure Air Temp Water Temp Dewpoint Dewpoint Depression Visibility Wind Speed Wind Dir Waves Ship Positions

Maersk Bulan

Last reported at 2014-Nov-09 03:18 UTC. Time now 2014-Nov-26 12:44 UTC.
Position N 34°28' W 024°40'.
Warning: this ship's position is 17 days out of date.

Length 223 m; draft 11.4 m.

Type: Ship (hazmat cat A). MMSI: 563455000.

Date/timePositionNaut miles runAvg speedWind from/ knotsBaromVisibWave heightAir tempDewpointWater temp
2014-Nov-09 03:18N 34°28' W 024°40'912.1
2014-Nov-09 02:33N 34°30' W 024°30'1411.8
2014-Nov-09 01:24N 34°32' W 024°13'1612.3
2014-Nov-09 00:08N 34°35' W 023°55'912.7
2014-Nov-08 23:24N 34°37' W 023°43'  
2014-Nov-05 19:05N 35°59' W 005°31'5 8.1
2014-Nov-05 18:30N 36°01' W 005°26'8 8.5
2014-Nov-05 17:33N 36°09' W 005°25'1 0.9
2014-Nov-05 16:26N 36°08' W 005°26'0 0.0
2014-Nov-05 15:29N 36°08' W 005°26'0 0.0
2014-Nov-05 14:29N 36°08' W 005°26'0 0.0
2014-Nov-05 13:29N 36°08' W 005°26'0 0.0
2014-Nov-05 12:29N 36°08' W 005°26'0 0.0
2014-Nov-05 11:29N 36°08' W 005°26'0 0.0
2014-Nov-05 10:26N 36°08' W 005°26'0 0.0
2014-Nov-05 09:29N 36°08' W 005°26'0 0.0
2014-Nov-05 08:29N 36°08' W 005°26'0 0.0
2014-Nov-05 07:26N 36°08' W 005°26'0 0.0
2014-Nov-05 06:23N 36°08' W 005°26'0 0.0
2014-Nov-05 05:29N 36°08' W 005°26'0 0.0
2014-Nov-05 04:32N 36°08' W 005°26'0 0.0
2014-Nov-05 03:29N 36°08' W 005°26'0 0.0
2014-Nov-05 02:29N 36°08' W 005°26'0 0.0
2014-Nov-05 01:17N 36°08' W 005°26'0 0.0
2014-Nov-05 00:29N 36°08' W 005°26'0 0.0
2014-Nov-04 23:32N 36°08' W 005°26'0 0.0
2014-Nov-04 22:32N 36°08' W 005°26'0 0.0
2014-Nov-04 21:26N 36°08' W 005°26'0 0.0
2014-Nov-04 20:29N 36°08' W 005°26'0 0.0
2014-Nov-04 19:26N 36°08' W 005°26'0 0.0
2014-Nov-04 18:29N 36°08' W 005°26'0 0.0
2014-Nov-04 17:32N 36°08' W 005°26'0 0.0
2014-Nov-04 16:32N 36°08' W 005°26'0 0.0
2014-Nov-04 15:23N 36°08' W 005°26'0 0.0
2014-Nov-04 14:05N 36°08' W 005°26'0 0.0
2014-Nov-04 13:29N 36°08' W 005°26'0 0.0
2014-Nov-04 09:29N 36°08' W 005°26'0 0.0
2014-Nov-04 07:20N 36°08' W 005°26'0 0.0
2014-Nov-04 06:17N 36°08' W 005°26'0 0.0
2014-Nov-04 05:29N 36°08' W 005°26'0 0.0
2014-Nov-04 04:20N 36°08' W 005°26'0 0.0
2014-Nov-04 03:23N 36°08' W 005°26'0 0.0
2014-Nov-04 02:16N 36°08' W 005°26'2 1.1
2014-Nov-04 00:26N 36°08' W 005°24'4 3.6
2014-Nov-03 23:17N 36°05' W 005°20'26711.1
2014-Nov-02 23:18N 36°45' E 000°08'  

Dump ship's entire track history